This is the latest recevied weather packets stored in our database for station/object EPGD. If no packets are shown the sender has not sent any weather packets the latest 10 day(s).
| Time | Temp. | Humidity | Pressure | Rain* | Wind** | Luminosity | Snow |
|---|---|---|---|---|---|---|---|
| 1777718104 | 23.89° C | 22% | 1022 hPa | - | - | - | - |
| 1777716304 | 22.78° C | 25% | 1022 hPa | - | - | - | - |
| 1777714504 | 21.67° C | 26% | 1022 hPa | - | - | - | - |
| 1777712704 | 20.56° C | 26% | 1023 hPa | - | - | - | - |
| 1777710904 | 20° C | 28% | 1023 hPa | - | - | - | - |
| 1777709104 | 18.89° C | 32% | 1023 hPa | - | - | - | - |
| 1777707304 | 18.89° C | 32% | 1023 hPa | - | - | - | - |
| 1777705504 | 17.78° C | 36% | 1023 hPa | - | - | - | - |
| 1777703704 | 15.56° C | 41% | 1023 hPa | - | - | - | - |
| 1777701904 | 13.89° C | 47% | 1023 hPa | - | - | - | - |
| 1777700104 | 11.67° C | 54% | 1023 hPa | - | - | - | - |
| 1777698304 | 10° C | 57% | 1023 hPa | - | - | - | - |
| 1777696504 | 8.89° C | 57% | 1023 hPa | - | - | - | - |
| 1777694704 | 7.78° C | 61% | 1023 hPa | - | - | - | - |
| 1777692903 | 6.67° C | 60% | 1023 hPa | - | - | - | - |
| 1777691104 | 7.78° C | 56% | 1023 hPa | - | - | - | - |
| 1777689303 | 7.78° C | 56% | 1023 hPa | - | - | - | - |
| 1777687504 | 7.78° C | 56% | 1023 hPa | - | - | - | - |
| 1777685704 | 8.89° C | 53% | 1023 hPa | - | - | - | - |
| 1777683904 | 8.89° C | 53% | 1023 hPa | - | - | - | - |
| 1777682104 | 8.89° C | 53% | 1023 hPa | - | - | - | - |
| 1777680304 | 10° C | 49% | 1024 hPa | - | - | - | - |
| 1777678504 | 10° C | 49% | 1024 hPa | - | - | - | - |
| 1777676704 | 10° C | 49% | 1024 hPa | - | - | - | - |
| 1777674904 | 11.67° C | 40% | 1024 hPa | - | - | - | - |
* Rain since midnight (hover to see other rain measurements)
** Current wind speed in m/s (hover to see current wind gust speed)